Time;durP1;ratioP1;P1;durP2;ratioP2;P2;SDS_P1;SDS_P2;PMS_P1;PMS_P2;Temp;Humidity;BMP_temperature;BMP_pressure;BME280_temperature;BME280_humidity;BME280_pressure;Samples;Min_cycle;Max_cycle;Signal;HPM_P1;HPM_P2
2023/09/11 00:00:19;;;;;;;18.90;11.57;;;;;;;24.89;64.94;101281.97;5086537;28;20027;-66
2023/09/11 00:02:44;;;;;;;14.07;10.70;;;;;;;24.87;64.77;101272.94;5070930;28;20021;-68
2023/09/11 00:05:10;;;;;;;13.60;10.95;;;;;;;24.82;64.78;101270.31;5063621;28;20045;-68
2023/09/11 00:07:36;;;;;;;15.23;11.13;;;;;;;24.77;64.98;101267.66;5070107;28;20107;-68
2023/09/11 00:10:01;;;;;;;15.00;11.52;;;;;;;24.77;65.07;101273.34;5070502;28;20017;-68
2023/09/11 00:12:26;;;;;;;15.95;11.32;;;;;;;24.77;64.79;101273.34;5062790;28;20389;-68
2023/09/11 00:14:52;;;;;;;17.50;11.27;;;;;;;24.72;65.05;101268.69;5083892;28;20612;-69
2023/09/11 00:17:17;;;;;;;12.27;10.98;;;;;;;24.71;64.82;101264.16;5050415;28;20029;-68
2023/09/11 00:19:42;;;;;;;15.65;11.02;;;;;;;24.68;64.91;101271.38;5050464;28;20077;-68
2023/09/11 00:22:08;;;;;;;16.50;11.82;;;;;;;24.66;64.85;101262.34;5065723;28;20035;-68
2023/09/11 00:24:33;;;;;;;16.92;10.80;;;;;;;24.65;65.22;101265.53;5070401;28;20094;-68
2023/09/11 00:26:58;;;;;;;15.60;11.93;;;;;;;24.65;65.05;101255.00;5086300;28;20039;-68
2023/09/11 00:29:24;;;;;;;15.40;11.10;;;;;;;24.63;64.88;101254.50;5089639;28;20027;-68
2023/09/11 00:31:49;;;;;;;15.77;11.20;;;;;;;24.66;64.90;101259.50;5060638;28;20128;-68
2023/09/11 00:34:14;;;;;;;12.27;10.55;;;;;;;24.61;65.04;101259.69;5053999;28;20039;-68
2023/09/11 00:36:40;;;;;;;12.45;10.07;;;;;;;24.65;65.07;101260.69;5070561;28;20052;-68
2023/09/11 00:39:05;;;;;;;13.43;10.43;;;;;;;24.56;65.17;101257.03;5057694;28;20064;-68
2023/09/11 00:41:30;;;;;;;12.25;10.95;;;;;;;24.58;64.90;101254.69;5054147;28;20033;-67
2023/09/11 00:43:56;;;;;;;14.80;10.98;;;;;;;24.52;65.28;101258.88;5065380;28;20063;-68
2023/09/11 00:46:21;;;;;;;13.45;11.05;;;;;;;24.54;64.90;101253.69;5073740;28;20016;-68
2023/09/11 00:48:53;;;;;;;14.48;10.75;;;;;;;24.52;65.31;101256.03;5054464;28;20052;-68
2023/09/11 00:51:18;;;;;;;;;;;;;;;24.70;64.41;101251.97;5063759;28;20483;-68
2023/09/11 00:53:43;;;;;;;13.85;10.73;;;;;;;24.48;64.62;101255.03;5068143;28;19920;-68
2023/09/11 00:56:09;;;;;;;14.60;10.80;;;;;;;24.48;64.96;101255.03;5065028;28;20545;-68
2023/09/11 00:58:35;;;;;;;13.30;10.55;;;;;;;24.45;64.73;101253.72;5076121;28;20041;-68
2023/09/11 01:01:02;;;;;;;12.60;10.43;;;;;;;24.44;64.77;101252.06;5070164;28;20036;-68
2023/09/11 01:03:27;;;;;;;13.00;10.65;;;;;;;24.37;65.07;101250.88;5073398;28;20025;-68
2023/09/11 01:05:55;;;;;;;11.65;10.40;;;;;;;24.41;65.06;101249.06;5068901;28;20058;-68
2023/09/11 01:08:20;;;;;;;16.38;11.07;;;;;;;24.37;65.06;101250.88;5072842;28;20034;-68
2023/09/11 01:10:45;;;;;;;12.10;10.82;;;;;;;24.36;65.04;101246.34;5073538;28;20107;-68
2023/09/11 01:13:11;;;;;;;15.90;11.25;;;;;;;24.33;64.86;101247.88;5071389;28;20106;-67
2023/09/11 01:15:53;;;;;;;13.55;10.85;;;;;;;24.37;64.88;101240.38;5065479;28;20452;-69
2023/09/11 01:18:29;;;;;;;14.93;10.63;;;;;;;24.24;64.65;101239.38;5081460;28;20149;-67
2023/09/11 01:21:26;;;;;;;17.55;11.63;;;;;;;24.35;64.53;101247.53;5094041;28;20020;-67
2023/09/11 01:24:16;;;;;;;14.10;10.43;;;;;;;24.35;64.53;101248.38;5077586;28;20514;-68
2023/09/11 01:27:12;;;;;;;14.73;10.80;;;;;;;24.36;64.83;101243.53;5086850;28;20050;-68
2023/09/11 01:29:40;;;;;;;14.50;11.10;;;;;;;24.29;64.37;101248.88;5093943;28;20111;-68
2023/09/11 01:32:08;;;;;;;18.55;10.55;;;;;;;24.27;64.34;101246.38;5089265;28;20074;-68
2023/09/11 01:34:34;;;;;;;12.40;10.18;;;;;;;24.30;64.19;101242.88;5071616;28;20024;-68
2023/09/11 01:36:59;;;;;;;15.93;10.38;;;;;;;24.31;64.28;101249.38;5093999;28;20381;-68
2023/09/11 01:39:25;;;;;;;15.38;10.52;;;;;;;24.30;64.29;101239.22;5084605;28;20035;-68
2023/09/11 01:41:54;;;;;;;14.40;10.45;;;;;;;24.31;64.34;101240.88;5060407;28;20107;-68
2023/09/11 01:44:42;;;;;;;11.40;10.30;;;;;;;24.24;64.37;101244.22;5086192;28;20070;-68
2023/09/11 01:47:09;;;;;;;15.30;10.32;;;;;;;24.22;63.83;101236.06;5072644;28;20141;-68
2023/09/11 01:49:37;;;;;;;14.38;9.80;;;;;;;24.19;63.95;101238.72;5068044;28;20056;-68
2023/09/11 01:52:04;;;;;;;13.13;9.75;;;;;;;24.19;64.21;101233.88;5073482;28;20029;-68
2023/09/11 01:54:29;;;;;;;13.65;9.18;;;;;;;24.21;64.19;101234.41;5063806;28;20502;-68
2023/09/11 01:56:55;;;;;;;11.98;9.95;;;;;;;24.22;64.16;101235.22;5052753;28;20035;-69
2023/09/11 01:59:20;;;;;;;10.50;9.32;;;;;;;24.20;64.46;101231.88;5072128;28;20039;-68
2023/09/11 02:01:45;;;;;;;12.75;9.63;;;;;;;24.18;64.08;101234.22;5071504;28;20024;-68
2023/09/11 02:04:11;;;;;;;14.73;10.57;;;;;;;24.17;64.47;101222.06;5071125;28;20025;-68
2023/09/11 02:06:36;;;;;;;12.38;9.68;;;;;;;24.15;64.24;101230.06;5067275;28;20071;-68
2023/09/11 02:09:02;;;;;;;17.83;11.82;;;;;;;24.10;64.39;101218.06;5073104;28;20035;-68
2023/09/11 02:11:28;;;;;;;12.23;10.07;;;;;;;24.08;63.93;101224.06;5069571;28;20020;-68
2023/09/11 02:13:54;;;;;;;13.73;10.25;;;;;;;24.08;64.21;101218.38;5071185;28;20050;-68
2023/09/11 02:16:19;;;;;;;12.05;9.57;;;;;;;24.03;63.69;101221.41;5071982;28;20028;-68
2023/09/11 02:18:44;;;;;;;12.98;10.40;;;;;;;24.03;64.38;101220.56;5071862;28;20068;-67
2023/09/11 02:21:09;;;;;;;14.68;9.93;;;;;;;24.02;63.95;101219.75;5066729;28;20093;-68
2023/09/11 02:23:35;;;;;;;12.70;10.18;;;;;;;24.00;64.49;101217.22;5062377;28;20028;-68
2023/09/11 02:26:00;;;;;;;11.32;9.43;;;;;;;24.02;64.06;101218.91;5072436;28;20072;-68
2023/09/11 02:28:26;;;;;;;13.45;10.50;;;;;;;23.95;64.49;101210.91;5050658;28;20067;-69
2023/09/11 02:30:52;;;;;;;10.57;9.48;;;;;;;23.93;64.41;101214.09;5071264;28;20122;-68
2023/09/11 02:33:17;;;;;;;15.30;10.25;;;;;;;23.94;64.20;101212.91;5071947;28;20436;-68
2023/09/11 02:35:43;;;;;;;15.10;10.90;;;;;;;23.93;64.21;101213.22;5053323;28;20754;-68
2023/09/11 02:38:08;;;;;;;13.75;10.35;;;;;;;23.89;64.29;101209.41;5050681;28;20542;-68
2023/09/11 02:40:37;;;;;;;12.07;10.48;;;;;;;23.86;64.65;101210.91;5054456;28;20044;-68
2023/09/11 02:43:03;;;;;;;12.57;9.95;;;;;;;23.87;64.48;101206.06;5063673;28;20031;-68
2023/09/11 02:45:28;;;;;;;11.70;10.50;;;;;;;23.83;64.60;101210.75;5071731;28;20025;-68
2023/09/11 02:47:53;;;;;;;12.05;10.15;;;;;;;23.82;64.52;101207.09;5070533;28;20048;-69
2023/09/11 02:50:19;;;;;;;17.42;11.15;;;;;;;23.79;64.51;101207.75;5069663;28;20055;-68
2023/09/11 02:52:44;;;;;;;10.63;9.52;;;;;;;23.77;64.50;101205.22;5060783;28;20025;-68
2023/09/11 02:55:11;;;;;;;14.52;10.48;;;;;;;23.79;64.43;101206.91;5075740;28;20044;-68
2023/09/11 02:57:37;;;;;;;14.77;10.63;;;;;;;23.74;64.50;101205.91;5050604;28;20427;-68
2023/09/11 03:00:06;;;;;;;11.32;10.13;;;;;;;23.69;64.70;101206.06;5064033;28;20450;-68
2023/09/11 03:02:31;;;;;;;13.05;9.07;;;;;;;23.73;64.36;101204.22;5051196;28;20557;-68
2023/09/11 03:04:56;;;;;;;13.30;10.65;;;;;;;23.69;64.74;101200.41;5050613;28;20025;-68
2023/09/11 03:07:22;;;;;;;14.90;10.00;;;;;;;23.68;64.60;101195.06;5051060;28;20036;-68
2023/09/11 03:09:47;;;;;;;16.13;10.43;;;;;;;23.66;64.50;101194.59;5061164;28;20032;-68
2023/09/11 03:12:13;;;;;;;11.80;10.45;;;;;;;23.60;64.96;101196.72;5067256;28;20081;-68
2023/09/11 03:14:39;;;;;;;12.27;10.77;;;;;;;23.62;64.89;101194.38;5071135;28;20036;-68
2023/09/11 03:17:04;;;;;;;12.80;10.60;;;;;;;23.57;64.89;101196.53;5057387;28;20128;-68
2023/09/11 03:19:33;;;;;;;13.13;9.73;;;;;;;23.58;64.61;101181.19;5050964;28;20140;-68
2023/09/11 03:21:58;;;;;;;14.13;10.05;;;;;;;23.59;64.65;101182.88;5050994;28;20025;-68
2023/09/11 03:24:24;;;;;;;11.32;9.45;;;;;;;23.55;64.61;101179.06;5062310;28;20456;-68
2023/09/11 03:26:49;;;;;;;13.05;10.75;;;;;;;23.53;64.37;101182.19;5056734;28;20468;-68
2023/09/11 03:29:15;;;;;;;11.82;10.02;;;;;;;23.55;64.45;101170.56;5050556;28;20028;-69
2023/09/11 03:31:41;;;;;;;12.40;9.85;;;;;;;23.50;64.28;101175.22;5069428;28;20060;-68
2023/09/11 03:34:06;;;;;;;13.45;9.73;;;;;;;23.50;64.35;101174.34;5064350;28;20464;-68
2023/09/11 03:36:31;;;;;;;16.20;9.60;;;;;;;23.52;64.78;101175.69;5070784;28;20024;-69
2023/09/11 03:38:56;;;;;;;15.75;10.65;;;;;;;23.50;64.63;101168.69;5078243;28;20032;-68
2023/09/11 03:41:22;;;;;;;13.98;10.43;;;;;;;23.49;64.56;101164.19;5078541;28;20079;-68
2023/09/11 03:43:47;;;;;;;12.32;10.05;;;;;;;23.47;64.47;101166.56;5054228;28;20460;-68
2023/09/11 03:46:14;;;;;;;11.93;10.38;;;;;;;23.44;64.40;101175.72;5050156;28;20032;-68
2023/09/11 03:48:40;;;;;;;14.15;10.27;;;;;;;23.44;64.57;101176.53;5055734;28;20036;-68
2023/09/11 03:51:06;;;;;;;14.10;10.60;;;;;;;23.43;64.28;101168.38;5066381;28;20044;-68
2023/09/11 03:53:31;;;;;;;12.98;10.75;;;;;;;23.37;64.49;101167.69;5069045;28;20472;-68
2023/09/11 03:55:57;;;;;;;14.43;10.55;;;;;;;23.41;64.39;101165.03;5055304;28;20377;-68
2023/09/11 03:58:22;;;;;;;14.75;10.80;;;;;;;23.40;64.49;101157.72;5057570;28;20475;-68
2023/09/11 04:00:47;;;;;;;14.77;10.50;;;;;;;23.37;64.61;101159.19;5071946;28;20340;-68
2023/09/11 04:03:13;;;;;;;12.95;10.20;;;;;;;23.44;64.64;101150.22;5070584;28;20054;-68
2023/09/11 04:05:39;;;;;;;12.70;9.85;;;;;;;23.39;64.81;101151.22;5072976;28;20039;-68
2023/09/11 04:08:04;;;;;;;14.68;10.02;;;;;;;23.36;64.31;101145.38;5057284;28;20033;-68
2023/09/11 04:10:30;;;;;;;15.27;9.73;;;;;;;23.37;64.14;101135.72;5054171;28;20053;-69
2023/09/11 04:12:55;;;;;;;16.50;10.45;;;;;;;23.32;64.46;101139.53;5060913;28;20484;-68
2023/09/11 04:15:20;;;;;;;14.02;9.63;;;;;;;23.32;64.29;101139.53;5068322;28;20074;-67
2023/09/11 04:17:46;;;;;;;12.10;10.88;;;;;;;23.27;63.98;101134.88;5054373;28;20030;-69
2023/09/11 04:20:11;;;;;;;13.25;10.02;;;;;;;23.27;63.76;101142.53;5052949;28;20037;-69
2023/09/11 04:22:36;;;;;;;15.27;9.95;;;;;;;23.21;63.93;101138.19;5055461;28;20057;-68
2023/09/11 04:25:03;;;;;;;18.88;10.32;;;;;;;23.12;63.97;101128.88;5074852;28;20035;-69
2023/09/11 04:27:28;;;;;;;14.88;9.65;;;;;;;23.19;63.55;101132.88;5072202;28;20035;-69
2023/09/11 04:29:53;;;;;;;12.15;9.18;;;;;;;23.24;63.92;101123.38;5073303;28;20052;-68
2023/09/11 04:32:20;;;;;;;11.93;9.20;;;;;;;23.23;63.56;101125.38;5066844;28;20431;-69
2023/09/11 04:34:46;;;;;;;13.60;9.75;;;;;;;23.24;63.43;101117.72;5071565;28;20134;-68
2023/09/11 04:37:11;;;;;;;12.10;9.10;;;;;;;23.28;63.65;101118.72;5073221;28;20520;-69
2023/09/11 04:39:37;;;;;;;14.32;9.60;;;;;;;23.26;63.55;101129.53;5085662;28;20522;-68
2023/09/11 04:42:02;;;;;;;14.13;9.77;;;;;;;23.24;63.68;101127.03;5092707;28;20028;-68
2023/09/11 04:44:27;;;;;;;11.60;9.98;;;;;;;23.22;63.56;101129.34;5076228;28;20082;-69
2023/09/11 04:46:53;;;;;;;15.57;9.48;;;;;;;23.14;63.59;101127.34;5073959;28;20123;-69
2023/09/11 04:49:18;;;;;;;14.10;9.90;;;;;;;23.16;63.68;101132.72;5062521;28;20162;-69
2023/09/11 04:51:44;;;;;;;19.50;9.60;;;;;;;23.13;63.77;101134.19;5053694;28;20370;-68
2023/09/11 04:54:09;;;;;;;12.23;9.60;;;;;;;23.18;64.12;101136.03;5073721;28;20055;-68
2023/09/11 04:56:34;;;;;;;16.10;9.38;;;;;;;23.18;63.48;101134.03;5053590;28;20128;-68
2023/09/11 04:59:00;;;;;;;11.30;9.15;;;;;;;23.19;63.60;101135.72;5066847;28;20036;-68
2023/09/11 05:01:26;;;;;;;12.15;9.20;;;;;;;23.22;63.72;101137.03;5066759;28;20526;-69
2023/09/11 05:03:51;;;;;;;15.55;9.77;;;;;;;23.20;63.25;101136.53;5068207;28;20392;-68
2023/09/11 05:06:16;;;;;;;13.73;9.07;;;;;;;23.16;63.10;101136.38;5065968;28;20025;-69
2023/09/11 05:08:42;;;;;;;17.52;9.75;;;;;;;23.18;63.10;101138.84;5053727;28;20377;-69
2023/09/11 05:11:07;;;;;;;11.70;9.43;;;;;;;23.14;63.03;101138.69;5052684;28;20032;-68
2023/09/11 05:13:32;;;;;;;12.02;9.20;;;;;;;23.16;63.05;101144.88;5072711;28;20028;-68
2023/09/11 05:15:57;;;;;;;11.52;8.88;;;;;;;23.15;63.89;101146.03;5072849;28;20758;-68
2023/09/11 05:18:23;;;;;;;13.57;9.45;;;;;;;23.14;63.40;101150.00;5068961;28;20047;-68
2023/09/11 05:20:50;;;;;;;14.23;9.70;;;;;;;23.14;63.31;101147.19;5072932;28;20637;-68
2023/09/11 05:23:17;;;;;;;12.20;9.25;;;;;;;23.04;62.83;101161.66;5066572;28;20090;-69
2023/09/11 05:25:42;;;;;;;15.10;10.18;;;;;;;23.07;62.78;101152.53;5069110;28;20154;-68
2023/09/11 05:28:07;;;;;;;13.68;9.15;;;;;;;23.02;63.19;101141.34;5070349;28;20103;-69
2023/09/11 05:30:33;;;;;;;13.93;9.00;;;;;;;23.04;63.06;101150.34;5072594;28;20032;-69
2023/09/11 05:32:58;;;;;;;16.00;9.63;;;;;;;23.00;62.97;101155.00;5071632;27;20586;-68
2023/09/11 05:35:23;;;;;;;12.48;9.80;;;;;;;23.03;63.38;101151.50;5060941;28;20506;-68
2023/09/11 05:37:49;;;;;;;18.27;10.40;;;;;;;22.95;62.93;101161.66;5051942;28;20047;-68
2023/09/11 05:40:14;;;;;;;15.68;9.35;;;;;;;22.90;62.64;101160.94;5081425;28;20481;-68
2023/09/11 05:42:39;;;;;;;14.73;9.10;;;;;;;22.97;63.04;101158.47;5060924;28;20374;-68
2023/09/11 05:45:06;;;;;;;15.90;9.82;;;;;;;22.98;62.84;101166.63;5051852;28;20467;-68
2023/09/11 05:47:32;;;;;;;12.70;9.20;;;;;;;22.98;63.06;101162.97;5052826;28;20021;-69
2023/09/11 05:50:00;;;;;;;14.13;10.00;;;;;;;22.99;62.52;101165.50;5061456;28;20036;-68
2023/09/11 05:52:28;;;;;;;15.00;9.45;;;;;;;23.00;62.61;101171.97;5082332;28;20020;-68
2023/09/11 05:54:54;;;;;;;21.40;10.32;;;;;;;22.90;62.77;101170.25;5072714;28;20086;-67
2023/09/11 05:57:19;;;;;;;20.77;9.57;;;;;;;22.89;62.45;101171.41;5067784;28;20120;-67
2023/09/11 05:59:46;;;;;;;15.00;9.10;;;;;;;22.92;62.56;101176.47;5053038;28;20112;-68
2023/09/11 06:02:11;;;;;;;16.98;9.43;;;;;;;22.90;62.84;101173.06;5052385;28;20033;-68
2023/09/11 06:04:36;;;;;;;15.13;9.38;;;;;;;22.94;62.80;101179.78;5052679;28;20037;-67
2023/09/11 06:07:03;;;;;;;17.15;10.15;;;;;;;22.90;62.58;101177.91;5066541;28;20033;-68
2023/09/11 06:09:28;;;;;;;17.30;8.80;;;;;;;22.88;62.62;101180.25;5059559;28;20024;-67
2023/09/11 06:11:54;;;;;;;15.57;9.07;;;;;;;22.96;62.70;101180.31;5073106;28;20115;-67
2023/09/11 06:14:19;;;;;;;17.15;9.57;;;;;;;22.90;62.83;101180.75;5071636;28;20054;-67
2023/09/11 06:16:44;;;;;;;14.73;9.52;;;;;;;22.97;62.17;101186.78;5069957;28;20412;-68
2023/09/11 06:19:10;;;;;;;13.02;8.93;;;;;;;22.95;62.86;101178.63;5069765;28;20106;-68
2023/09/11 06:21:35;;;;;;;19.38;9.77;;;;;;;22.88;62.95;101180.25;5063468;28;20444;-68
2023/09/11 06:24:01;;;;;;;13.15;9.27;;;;;;;22.94;62.76;101184.59;5063730;28;20507;-67
2023/09/11 06:26:26;;;;;;;16.42;9.93;;;;;;;22.93;62.31;101182.94;5069739;28;20051;-68
2023/09/11 06:28:51;;;;;;;14.23;9.70;;;;;;;22.96;62.35;101185.13;5069605;28;20043;-68
2023/09/11 06:31:17;;;;;;;16.77;9.10;;;;;;;23.02;62.63;101186.63;5050710;28;20036;-68
2023/09/11 06:33:44;;;;;;;13.02;8.45;;;;;;;23.06;62.81;101184.81;5061571;28;20115;-68
2023/09/11 06:36:09;;;;;;;17.95;8.60;;;;;;;23.09;62.75;101186.16;5069506;28;20032;-67
2023/09/11 06:38:34;;;;;;;18.02;10.20;;;;;;;23.01;62.44;101191.47;5068949;28;20038;-67
2023/09/11 06:41:00;;;;;;;14.60;9.25;;;;;;;23.04;62.88;101195.63;5059097;28;20182;-68
2023/09/11 06:43:25;;;;;;;16.58;9.63;;;;;;;23.09;62.71;101188.97;5048642;28;20044;-68
2023/09/11 06:45:52;;;;;;;16.05;9.10;;;;;;;23.13;63.11;101188.00;5048537;28;20036;-68
2023/09/11 06:48:17;;;;;;;12.75;8.60;;;;;;;23.15;62.88;101199.00;5051613;28;20480;-68
2023/09/11 06:50:43;;;;;;;10.70;8.35;;;;;;;23.15;62.50;101188.50;5054789;28;20116;-68
2023/09/11 06:53:09;;;;;;;10.95;9.23;;;;;;;23.14;62.15;101194.47;5067079;28;20063;-72
2023/09/11 06:55:35;;;;;;;11.77;7.93;;;;;;;23.20;63.46;101184.69;5061707;28;20119;-67
2023/09/11 06:58:02;;;;;;;14.98;8.98;;;;;;;23.20;62.35;101194.00;5080252;28;20122;-66
2023/09/11 07:00:27;;;;;;;15.68;9.38;;;;;;;23.19;62.50;101195.19;5087782;28;20036;-67
2023/09/11 07:02:54;;;;;;;11.13;8.77;;;;;;;23.25;61.99;101198.66;5070000;28;20559;-68
2023/09/11 07:05:23;;;;;;;11.27;9.35;;;;;;;23.22;62.43;101191.66;5085986;28;20063;-67
2023/09/11 07:07:48;;;;;;;14.15;10.10;;;;;;;23.22;62.07;101180.34;5079432;28;20031;-67
2023/09/11 07:10:15;;;;;;;11.93;9.60;;;;;;;23.24;62.26;101189.34;5074865;28;20107;-67
2023/09/11 07:12:47;;;;;;;10.73;8.30;;;;;;;23.30;62.75;101178.69;5054403;28;20035;-67
2023/09/11 07:15:13;;;;;;;14.73;9.55;;;;;;;23.31;62.48;101182.38;5068796;28;20384;-67
2023/09/11 07:17:38;;;;;;;12.85;9.50;;;;;;;23.31;62.43;101182.38;5050622;28;20032;-67
2023/09/11 07:20:05;;;;;;;13.68;9.05;;;;;;;23.34;62.76;101168.34;5065102;28;20040;-66
2023/09/11 07:22:31;;;;;;;13.07;9.27;;;;;;;23.37;62.58;101167.69;5065601;28;20028;-66
2023/09/11 07:24:57;;;;;;;13.45;9.57;;;;;;;23.39;62.28;101176.72;5067036;28;20036;-67
2023/09/11 07:27:22;;;;;;;17.63;9.23;;;;;;;23.44;62.38;101172.88;5065306;28;20027;-67
2023/09/11 07:29:49;;;;;;;12.90;8.68;;;;;;;23.50;62.74;101182.84;5084782;28;20067;-67
2023/09/11 07:32:14;;;;;;;16.10;10.25;;;;;;;23.53;62.43;101173.69;5068600;28;20055;-68
2023/09/11 07:34:40;;;;;;;16.60;9.73;;;;;;;23.58;61.92;101179.22;5070487;28;20032;-69
2023/09/11 07:37:05;;;;;;;16.30;9.05;;;;;;;23.62;62.62;101183.06;5068976;28;20021;-67
2023/09/11 07:39:30;;;;;;;12.73;9.90;;;;;;;23.67;62.76;101180.06;5057410;28;20509;-68
2023/09/11 07:41:56;;;;;;;16.30;10.27;;;;;;;23.73;62.87;101187.22;5058598;28;20036;-67
2023/09/11 07:44:21;;;;;;;15.45;10.15;;;;;;;23.76;62.52;101186.56;5058501;28;20155;-68
2023/09/11 07:46:47;;;;;;;19.65;11.18;;;;;;;23.80;62.49;101197.25;5062216;28;20122;-67
2023/09/11 07:49:12;;;;;;;15.13;11.88;;;;;;;23.82;62.18;101186.41;5084051;28;20024;-68
2023/09/11 07:51:37;;;;;;;18.33;11.35;;;;;;;23.88;62.39;101196.41;5087237;28;20033;-69
2023/09/11 07:54:03;;;;;;;19.33;11.90;;;;;;;23.91;62.49;101190.88;5093985;28;20028;-67
2023/09/11 07:56:29;;;;;;;13.63;10.85;;;;;;;23.99;62.19;101195.72;5070666;28;20024;-67
2023/09/11 07:58:54;;;;;;;15.90;11.45;;;;;;;24.02;62.42;101202.72;5065626;28;20121;-67
2023/09/11 08:01:21;;;;;;;16.38;11.88;;;;;;;24.09;62.14;101202.19;5066129;28;20059;-66
2023/09/11 08:03:47;;;;;;;13.82;9.63;;;;;;;24.16;62.01;101202.53;5074165;28;20039;-67
2023/09/11 08:06:13;;;;;;;15.63;10.95;;;;;;;24.22;62.13;101207.69;5069670;28;20677;-65
2023/09/11 08:08:39;;;;;;;17.08;13.57;;;;;;;24.28;61.70;101216.00;5075332;28;20021;-66
2023/09/11 08:11:19;;;;;;;20.13;15.32;;;;;;;24.31;62.13;101207.66;5058577;28;20032;-66
2023/09/11 08:13:46;;;;;;;22.63;14.27;;;;;;;24.36;61.84;101206.63;5061428;28;20021;-66
2023/09/11 08:16:12;;;;;;;15.07;12.73;;;;;;;24.41;62.08;101213.03;5076380;28;20032;-67
2023/09/11 08:18:37;;;;;;;17.15;13.68;;;;;;;24.47;61.98;101213.66;5060722;28;20044;-68
2023/09/11 08:21:03;;;;;;;24.58;17.35;;;;;;;24.51;61.93;101220.31;5056058;28;20025;-66
2023/09/11 08:23:28;;;;;;;12.65;11.15;;;;;;;24.60;61.36;101221.16;5064028;28;20044;-65
2023/09/11 08:26:03;;;;;;;17.83;12.68;;;;;;;24.65;61.35;101215.28;5056867;28;20028;-66
2023/09/11 08:28:29;;;;;;;20.45;13.27;;;;;;;24.73;61.45;101213.56;5056475;28;20029;-66
2023/09/11 08:30:56;;;;;;;25.17;17.13;;;;;;;24.79;61.48;101208.53;5055931;28;20110;-66
2023/09/11 08:33:22;;;;;;;19.73;15.27;;;;;;;24.88;61.64;101210.16;5060128;28;20467;-66
2023/09/11 08:35:48;;;;;;;22.40;16.42;;;;;;;24.88;61.18;101209.34;5068614;28;20029;-66
2023/09/11 08:38:18;;;;;;;17.35;12.63;;;;;;;24.99;61.18;101213.44;5057875;28;20064;-66
2023/09/11 08:40:44;;;;;;;19.20;14.30;;;;;;;25.02;61.31;101207.06;5065958;28;20111;-66
2023/09/11 08:43:10;;;;;;;25.70;14.95;;;;;;;25.11;61.54;101209.88;5071617;28;20037;-66
2023/09/11 08:45:36;;;;;;;26.17;15.02;;;;;;;25.12;61.32;101209.56;5057283;28;20021;-66
2023/09/11 08:48:08;;;;;;;20.63;16.80;;;;;;;25.19;60.88;101217.53;5059469;28;20138;-66
2023/09/11 08:50:35;;;;;;;31.23;16.30;;;;;;;25.26;60.94;101211.31;5055989;28;20033;-66
2023/09/11 08:53:01;;;;;;;17.27;14.00;;;;;;;25.33;60.68;101223.78;5055457;28;20105;-67
2023/09/11 08:55:33;;;;;;;20.80;14.63;;;;;;;25.38;61.19;101211.38;5070298;28;20383;-67
2023/09/11 08:58:04;;;;;;;18.63;14.00;;;;;;;25.42;60.48;101212.34;5070482;28;20060;-66
2023/09/11 09:00:31;;;;;;;23.02;15.85;;;;;;;25.42;60.39;101212.34;5051801;28;20020;-65
2023/09/11 09:02:59;;;;;;;20.35;15.40;;;;;;;25.52;60.15;101219.66;5054209;28;20385;-66
2023/09/11 09:05:25;;;;;;;21.52;15.32;;;;;;;25.50;60.09;101220.00;5053127;28;20408;-66
2023/09/11 09:07:52;;;;;;;20.58;14.25;;;;;;;25.56;60.13;101214.94;5053569;28;20040;-66
2023/09/11 09:10:18;;;;;;;18.63;15.95;;;;;;;25.56;60.07;101214.94;5052288;28;20032;-66
2023/09/11 09:12:44;;;;;;;18.10;15.48;;;;;;;25.60;59.71;101210.22;5062800;28;20037;-66
2023/09/11 09:15:10;;;;;;;21.25;15.30;;;;;;;25.59;60.01;101203.72;5050037;28;20065;-66
2023/09/11 09:17:35;;;;;;;20.50;15.10;;;;;;;25.65;60.63;101210.84;5063055;28;20079;-67
2023/09/11 09:20:01;;;;;;;20.17;15.70;;;;;;;25.67;60.19;101216.19;5071675;28;20471;-66
2023/09/11 09:22:26;;;;;;;17.95;13.77;;;;;;;25.77;59.71;101210.06;5070724;28;20524;-66
2023/09/11 09:24:54;;;;;;;16.90;12.18;;;;;;;25.82;59.80;101206.22;5053985;28;20634;-67
2023/09/11 09:27:21;;;;;;;19.20;12.98;;;;;;;25.91;60.12;101215.53;5052460;28;20484;-66
2023/09/11 09:29:48;;;;;;;18.70;14.75;;;;;;;25.93;59.58;101218.84;5061421;28;20031;-65
2023/09/11 09:32:14;;;;;;;20.42;13.68;;;;;;;26.00;59.32;101212.59;5063298;28;20398;-66
2023/09/11 09:34:54;;;;;;;18.73;14.38;;;;;;;26.03;59.03;101212.72;5054426;28;20037;-66
2023/09/11 09:37:20;;;;;;;16.50;13.23;;;;;;;26.02;58.60;101219.59;5050870;28;20491;-66
2023/09/11 09:39:48;;;;;;;16.65;12.70;;;;;;;26.08;58.46;101214.50;5052522;28;20021;-67
2023/09/11 09:42:14;;;;;;;16.30;11.95;;;;;;;26.11;58.61;101213.81;5052255;28;20060;-67
2023/09/11 09:44:40;;;;;;;19.42;11.65;;;;;;;26.18;58.53;101214.91;5053774;28;20556;-67
2023/09/11 09:47:13;;;;;;;14.48;11.70;;;;;;;26.21;58.10;101216.22;5063909;28;20028;-67
2023/09/11 09:49:52;;;;;;;19.27;13.18;;;;;;;26.23;58.08;101215.88;5071519;28;20036;-67
2023/09/11 09:52:19;;;;;;;14.35;10.65;;;;;;;26.25;56.90;101213.50;5066843;28;20037;-68
2023/09/11 09:54:52;;;;;;;18.13;11.80;;;;;;;26.25;56.52;101214.31;5066266;28;20383;-67
2023/09/11 09:57:20;;;;;;;14.70;10.85;;;;;;;26.27;56.64;101219.69;5051308;28;20388;-66
2023/09/11 09:59:49;;;;;;;13.63;9.80;;;;;;;26.33;56.33;101210.59;5051485;28;20076;-66
2023/09/11 10:02:23;;;;;;;13.68;9.13;;;;;;;26.34;57.43;101212.25;5057471;28;20546;-66
2023/09/11 10:04:57;;;;;;;15.23;8.80;;;;;;;26.40;57.39;101215.69;5059267;28;20029;-67
2023/09/11 10:07:43;;;;;;;16.77;10.10;;;;;;;26.40;57.39;101213.66;5054241;28;20029;-67
2023/09/11 10:10:23;;;;;;;16.70;10.32;;;;;;;26.43;57.27;101209.28;5050616;28;20426;-67
2023/09/11 10:13:10;;;;;;;12.70;9.18;;;;;;;26.48;57.24;101211.94;5053374;28;20395;-67
2023/09/11 10:15:37;;;;;;;18.45;10.00;;;;;;;26.50;56.00;101211.59;5052246;28;20032;-67
2023/09/11 10:18:03;;;;;;;13.68;9.30;;;;;;;26.52;55.98;101209.22;5051259;28;20044;-67
2023/09/11 10:20:30;;;;;;;17.55;8.30;;;;;;;26.55;55.60;101208.50;5058638;28;20047;-67
2023/09/11 10:22:58;;;;;;;12.38;8.68;;;;;;;26.63;55.30;101204.72;5053661;28;20024;-67
2023/09/11 10:25:24;;;;;;;11.40;7.97;;;;;;;26.65;55.25;101202.38;5056457;28;20112;-67
2023/09/11 10:28:12;;;;;;;11.55;7.70;;;;;;;26.74;55.46;101205.09;5056617;28;20036;-65
2023/09/11 10:31:13;;;;;;;10.30;7.60;;;;;;;26.76;55.11;101202.72;5051293;28;20055;-64
2023/09/11 10:33:39;;;;;;;14.55;8.20;;;;;;;26.74;54.67;101202.25;5050814;28;20119;-64
2023/09/11 10:36:11;;;;;;;10.40;8.10;;;;;;;26.76;54.70;101211.25;5056943;28;20067;-66
2023/09/11 10:38:38;;;;;;;12.45;8.38;;;;;;;26.83;55.02;101200.13;5061928;28;20032;-68
2023/09/11 10:41:06;;;;;;;14.82;8.57;;;;;;;26.89;54.97;101195.84;5064413;28;20036;-67
2023/09/11 10:43:31;;;;;;;14.73;7.90;;;;;;;26.86;54.56;101197.38;5055549;28;20063;-66
2023/09/11 10:45:56;;;;;;;12.55;7.80;;;;;;;26.91;54.71;101202.00;5062753;28;20017;-66
2023/09/11 10:48:29;;;;;;;10.95;8.70;;;;;;;26.91;54.52;101197.16;5049885;28;20056;-66
2023/09/11 10:50:58;;;;;;;12.65;7.80;;;;;;;26.98;55.28;101193.72;5056171;28;20035;-66
2023/09/11 10:53:27;;;;;;;12.80;7.35;;;;;;;27.04;54.51;101189.44;5054941;28;20040;-66
2023/09/11 10:55:52;;;;;;;14.73;7.70;;;;;;;27.10;54.06;101192.88;5065843;28;20044;-66
2023/09/11 10:58:18;;;;;;;12.13;8.40;;;;;;;27.10;54.61;101192.88;5060953;28;20025;-66
2023/09/11 11:00:44;;;;;;;12.80;7.57;;;;;;;27.08;54.63;101187.53;5068069;28;20834;-67
2023/09/11 11:03:14;;;;;;;13.52;8.20;;;;;;;27.13;54.39;101187.31;5053492;28;20106;-66
2023/09/11 11:05:39;;;;;;;12.35;7.78;;;;;;;27.17;54.28;101181.75;5068221;28;20538;-66
2023/09/11 11:08:07;;;;;;;8.75;7.35;;;;;;;27.16;53.47;101185.78;5060135;28;20044;-66
2023/09/11 11:10:32;;;;;;;12.73;7.53;;;;;;;27.21;52.34;101193.25;5069356;28;20027;-67